Time;durP1;ratioP1;P1;durP2;ratioP2;P2;SDS_P1;SDS_P2;PMS_P1;PMS_P2;Temp;Humidity;BMP_temperature;BMP_pressure;BME280_temperature;BME280_humidity;BME280_pressure;Samples;Min_cycle;Max_cycle;Signal;HPM_P1;HPM_P2
2023/04/23 00:01:17;;;;;;;18.67;11.30;;;11.00;99.90;;;;;;4938287;28;20023;-67
2023/04/23 00:03:43;;;;;;;26.30;12.82;;;10.90;99.90;;;;;;4950493;28;20061;-67
2023/04/23 00:06:10;;;;;;;23.75;12.95;;;10.90;99.90;;;;;;4934745;28;20035;-67
2023/04/23 00:08:39;;;;;;;18.77;11.07;;;10.90;99.90;;;;;;4931716;28;20043;-67
2023/04/23 00:11:06;;;;;;;19.58;11.70;;;10.90;99.90;;;;;;4924817;28;20028;-66
2023/04/23 00:13:32;;;;;;;23.70;12.10;;;10.90;99.90;;;;;;4925546;28;20135;-67
2023/04/23 00:15:57;;;;;;;17.20;11.93;;;10.80;99.90;;;;;;4931284;28;20115;-74
2023/04/23 00:18:23;;;;;;;18.70;12.10;;;10.80;99.90;;;;;;4934954;28;20028;-67
2023/04/23 00:20:49;;;;;;;18.95;11.80;;;10.80;99.90;;;;;;4924955;28;20059;-67
2023/04/23 00:23:15;;;;;;;19.20;12.60;;;10.80;99.90;;;;;;4928805;28;20401;-67
2023/04/23 00:25:40;;;;;;;21.38;12.77;;;10.70;99.90;;;;;;4942472;28;20409;-67
2023/04/23 00:28:06;;;;;;;17.75;11.40;;;10.70;99.90;;;;;;4921951;28;20421;-67
2023/04/23 00:30:32;;;;;;;22.70;13.50;;;10.70;99.90;;;;;;4925164;28;20106;-67
2023/04/23 00:32:58;;;;;;;21.83;12.20;;;10.70;99.90;;;;;;4921040;28;20059;-67
2023/04/23 00:35:23;;;;;;;19.10;12.75;;;10.70;99.90;;;;;;4927036;28;20075;-67
2023/04/23 00:37:49;;;;;;;21.23;12.90;;;10.70;99.90;;;;;;4927979;28;20520;-67
2023/04/23 00:40:14;;;;;;;21.13;12.68;;;10.70;99.90;;;;;;4915718;28;20040;-67
2023/04/23 00:42:40;;;;;;;22.35;13.27;;;10.70;99.90;;;;;;4926383;28;20052;-67
2023/04/23 00:45:11;;;;;;;21.17;12.98;;;10.70;99.90;;;;;;4932628;28;20046;-66
2023/04/23 00:47:36;;;;;;;20.50;12.70;;;10.60;99.90;;;;;;4922965;28;20188;-67
2023/04/23 00:50:02;;;;;;;23.27;13.13;;;10.60;99.90;;;;;;4940166;28;20503;-66
2023/04/23 00:52:28;;;;;;;22.48;13.48;;;10.60;99.90;;;;;;4932540;28;20508;-66
2023/04/23 00:54:54;;;;;;;23.83;13.52;;;10.60;99.90;;;;;;4917937;28;20079;-66
2023/04/23 00:57:24;;;;;;;20.63;13.57;;;10.50;99.90;;;;;;4915757;28;20020;-67
2023/04/23 00:59:50;;;;;;;22.83;12.75;;;10.50;99.90;;;;;;4931551;28;20162;-68
2023/04/23 01:02:16;;;;;;;21.17;13.30;;;10.50;99.90;;;;;;4929796;28;20460;-67
2023/04/23 01:04:43;;;;;;;22.38;13.15;;;10.50;99.90;;;;;;4943963;29;20034;-67
2023/04/23 01:07:11;;;;;;;23.92;13.80;;;10.50;99.90;;;;;;4930465;28;20016;-67
2023/04/23 01:09:37;;;;;;;20.60;12.82;;;10.50;99.90;;;;;;4926532;28;20085;-66
2023/04/23 01:12:05;;;;;;;23.52;13.75;;;10.50;99.90;;;;;;4938963;28;20027;-67
2023/04/23 01:14:31;;;;;;;25.75;14.02;;;10.50;99.90;;;;;;4940143;29;20024;-67
2023/04/23 01:16:57;;;;;;;23.48;13.50;;;10.50;99.90;;;;;;4935687;28;20502;-67
2023/04/23 01:19:23;;;;;;;28.48;14.15;;;10.40;99.90;;;;;;4929076;28;20127;-68
2023/04/23 01:21:50;;;;;;;25.88;14.57;;;10.40;99.90;;;;;;4911726;28;20448;-68
2023/04/23 01:24:15;;;;;;;27.38;14.95;;;10.40;99.90;;;;;;4928149;28;20111;-67
2023/04/23 01:26:41;;;;;;;24.08;15.07;;;10.40;99.90;;;;;;4929280;28;20138;-67
2023/04/23 01:29:07;;;;;;;27.05;16.13;;;10.40;99.90;;;;;;4943426;28;20042;-67
2023/04/23 01:31:33;;;;;;;28.55;15.70;;;10.30;99.90;;;;;;4921711;28;20031;-67
2023/04/23 01:34:00;;;;;;;26.00;15.35;;;10.30;99.90;;;;;;4928875;28;20024;-67
2023/04/23 01:36:26;;;;;;;27.30;15.75;;;10.30;99.90;;;;;;4923880;28;20063;-66
2023/04/23 01:38:52;;;;;;;24.80;14.40;;;10.30;99.90;;;;;;4923470;28;20016;-68
2023/04/23 01:41:19;;;;;;;29.48;14.98;;;10.30;99.90;;;;;;4925434;28;20111;-66
2023/04/23 01:43:44;;;;;;;28.63;16.23;;;10.30;99.90;;;;;;4926057;28;20032;-67
2023/04/23 01:46:11;;;;;;;25.80;15.93;;;10.30;99.90;;;;;;4946657;28;20396;-67
2023/04/23 01:48:37;;;;;;;28.35;15.98;;;10.20;99.90;;;;;;4932106;28;20027;-66
2023/04/23 01:51:03;;;;;;;29.70;16.50;;;10.20;99.90;;;;;;4940190;28;20036;-67
2023/04/23 01:53:28;;;;;;;30.30;17.95;;;10.10;99.90;;;;;;4946079;28;20043;-67
2023/04/23 01:55:55;;;;;;;25.65;15.65;;;10.10;99.90;;;;;;4929454;28;20075;-67
2023/04/23 01:58:22;;;;;;;29.65;16.65;;;10.10;99.90;;;;;;4931665;28;20020;-67
2023/04/23 02:00:48;;;;;;;32.47;16.85;;;10.10;99.90;;;;;;4930688;28;20024;-67
2023/04/23 02:03:14;;;;;;;31.42;16.65;;;10.00;99.90;;;;;;4929188;28;20062;-67
2023/04/23 02:05:40;;;;;;;27.98;16.52;;;10.00;99.90;;;;;;4951681;28;20064;-67
2023/04/23 02:08:07;;;;;;;27.42;17.55;;;10.00;99.90;;;;;;4944078;28;20040;-67
2023/04/23 02:10:32;;;;;;;25.65;15.88;;;10.00;99.90;;;;;;4940820;29;20063;-67
2023/04/23 02:12:58;;;;;;;32.80;16.40;;;9.90;99.90;;;;;;4935152;28;20070;-67
2023/04/23 02:15:24;;;;;;;31.50;16.67;;;9.90;99.90;;;;;;4930709;28;20027;-67
2023/04/23 02:17:51;;;;;;;29.10;15.40;;;9.80;99.90;;;;;;4929268;28;20040;-67
2023/04/23 02:20:17;;;;;;;29.83;17.27;;;9.80;99.90;;;;;;4929187;28;20066;-67
2023/04/23 02:22:44;;;;;;;29.75;16.20;;;9.70;99.90;;;;;;4923374;28;20042;-67
2023/04/23 02:25:10;;;;;;;32.53;17.73;;;9.70;99.90;;;;;;4942025;28;20035;-67
2023/04/23 02:27:36;;;;;;;30.67;16.67;;;9.70;99.90;;;;;;4911333;28;20481;-67
2023/04/23 02:30:02;;;;;;;29.75;17.67;;;9.70;99.90;;;;;;4926960;28;20036;-67
2023/04/23 02:32:28;;;;;;;31.95;17.00;;;9.60;99.90;;;;;;4909174;28;22079;-67
2023/04/23 02:34:54;;;;;;;31.55;16.77;;;9.60;99.90;;;;;;4924039;28;20485;-67
2023/04/23 02:37:20;;;;;;;36.00;17.27;;;9.60;99.90;;;;;;4931770;28;20027;-67
2023/04/23 02:39:46;;;;;;;31.02;18.02;;;9.50;99.90;;;;;;4924492;28;20024;-67
2023/04/23 02:42:12;;;;;;;33.92;17.77;;;9.50;99.90;;;;;;4928430;28;20460;-67
2023/04/23 02:44:38;;;;;;;34.38;17.20;;;9.50;99.90;;;;;;4927024;28;20028;-66
2023/04/23 02:47:04;;;;;;;29.30;16.48;;;9.40;99.90;;;;;;4928833;28;20548;-67
2023/04/23 02:49:29;;;;;;;33.75;17.40;;;9.30;99.90;;;;;;4924713;28;20508;-67
2023/04/23 02:51:55;;;;;;;33.65;18.05;;;9.40;99.90;;;;;;4924735;28;20036;-66
2023/04/23 02:54:21;;;;;;;31.60;17.23;;;9.40;99.90;;;;;;4927073;28;20406;-67
2023/04/23 02:56:46;;;;;;;31.98;18.95;;;9.30;99.90;;;;;;4894642;28;20533;-67
2023/04/23 02:59:12;;;;;;;35.30;19.23;;;9.30;99.90;;;;;;4926729;28;20039;-67
2023/04/23 03:01:37;;;;;;;33.92;18.17;;;9.30;99.90;;;;;;4928263;28;20028;-67
2023/04/23 03:04:03;;;;;;;37.22;18.77;;;9.30;99.90;;;;;;4923915;28;20468;-67
2023/04/23 03:06:30;;;;;;;35.55;19.05;;;9.20;99.90;;;;;;4914118;28;20051;-70
2023/04/23 03:08:56;;;;;;;37.80;19.95;;;9.20;99.90;;;;;;4924520;28;20481;-67
2023/04/23 03:11:22;;;;;;;38.13;18.80;;;9.10;99.90;;;;;;4930131;28;20028;-67
2023/04/23 03:13:47;;;;;;;39.00;18.60;;;9.10;99.90;;;;;;4929354;28;20047;-67
2023/04/23 03:16:13;;;;;;;35.65;19.50;;;9.10;99.90;;;;;;4929202;29;20071;-67
2023/04/23 03:18:39;;;;;;;35.75;19.80;;;9.00;99.90;;;;;;4936415;29;20024;-67
2023/04/23 03:21:05;;;;;;;37.10;19.20;;;8.90;99.90;;;;;;4930326;28;20047;-67
2023/04/23 03:23:30;;;;;;;34.60;18.25;;;8.90;99.90;;;;;;4930385;29;20047;-67
2023/04/23 03:25:56;;;;;;;38.58;18.77;;;8.90;99.90;;;;;;4952634;28;20972;-67
2023/04/23 03:28:22;;;;;;;37.28;20.17;;;8.80;99.90;;;;;;4931197;29;20035;-67
2023/04/23 03:30:48;;;;;;;46.38;22.10;;;8.80;99.90;;;;;;4924347;28;20038;-67
2023/04/23 03:33:14;;;;;;;41.92;20.08;;;8.70;99.90;;;;;;4937150;28;20563;-65
2023/04/23 03:35:39;;;;;;;40.65;21.35;;;8.70;99.90;;;;;;4931070;28;20410;-65
2023/04/23 03:38:05;;;;;;;39.30;21.52;;;8.60;99.90;;;;;;4939557;28;20031;-65
2023/04/23 03:40:31;;;;;;;42.60;19.23;;;8.60;99.90;;;;;;4932246;28;20410;-66
2023/04/23 03:42:56;;;;;;;39.15;20.48;;;8.60;99.90;;;;;;4936143;28;20035;-65
2023/04/23 03:45:22;;;;;;;47.83;21.95;;;8.60;99.90;;;;;;4927131;28;20043;-66
2023/04/23 03:47:48;;;;;;;46.40;22.10;;;8.50;99.90;;;;;;4927448;28;20040;-66
2023/04/23 03:50:14;;;;;;;45.60;22.38;;;8.50;99.90;;;;;;4924557;28;20121;-65
2023/04/23 03:52:40;;;;;;;52.13;23.30;;;8.50;99.90;;;;;;4927613;28;20032;-66
2023/04/23 03:55:06;;;;;;;42.58;21.55;;;8.50;99.90;;;;;;4927840;28;20377;-65
2023/04/23 03:57:32;;;;;;;52.28;24.55;;;8.50;99.90;;;;;;4908114;28;20059;-65
2023/04/23 03:59:57;;;;;;;50.50;24.75;;;8.50;99.90;;;;;;4914030;28;20027;-65
2023/04/23 04:02:23;;;;;;;48.22;24.10;;;8.60;99.90;;;;;;4917259;28;20040;-65
2023/04/23 04:04:50;;;;;;;58.38;24.00;;;8.60;99.90;;;;;;4912099;28;20583;-65
2023/04/23 04:07:17;;;;;;;51.63;25.65;;;8.60;99.90;;;;;;4926576;28;20027;-65
2023/04/23 04:09:42;;;;;;;50.30;24.60;;;8.60;99.90;;;;;;4909753;28;20050;-65
2023/04/23 04:12:08;;;;;;;57.28;24.63;;;8.70;99.90;;;;;;4920865;28;20540;-65
2023/04/23 04:14:33;;;;;;;56.63;26.00;;;8.80;99.90;;;;;;4932710;28;20027;-65
2023/04/23 04:16:59;;;;;;;62.40;26.15;;;8.80;99.90;;;;;;4943017;28;20119;-64
2023/04/23 04:19:25;;;;;;;48.80;23.27;;;8.80;99.90;;;;;;4928911;28;20060;-65
2023/04/23 04:21:50;;;;;;;47.00;22.73;;;8.90;99.90;;;;;;4926501;28;20486;-65
2023/04/23 04:24:17;;;;;;;50.35;26.30;;;8.90;99.90;;;;;;4929416;28;20031;-65
2023/04/23 04:26:44;;;;;;;50.92;24.98;;;9.00;99.90;;;;;;4929134;28;20035;-65
2023/04/23 04:29:10;;;;;;;44.92;22.40;;;9.00;99.90;;;;;;4928713;28;20467;-65
2023/04/23 04:31:36;;;;;;;51.85;24.55;;;9.10;99.90;;;;;;4928676;28;20036;-65
2023/04/23 04:34:02;;;;;;;58.25;24.88;;;9.20;99.90;;;;;;4913999;28;20031;-65
2023/04/23 04:36:28;;;;;;;47.33;23.65;;;9.20;99.90;;;;;;4927563;28;20162;-65
2023/04/23 04:38:57;;;;;;;56.05;25.35;;;9.30;99.90;;;;;;4929720;28;20110;-65
2023/04/23 04:41:26;;;;;;;46.80;23.55;;;9.30;99.90;;;;;;4913405;28;20490;-65
2023/04/23 04:43:57;;;;;;;48.50;23.55;;;9.40;99.90;;;;;;4927369;28;20119;-65
2023/04/23 04:46:24;;;;;;;47.00;23.20;;;9.40;99.90;;;;;;4930214;28;20024;-65
2023/04/23 04:48:50;;;;;;;45.20;23.30;;;9.40;99.90;;;;;;4910402;28;20056;-65
2023/04/23 04:51:16;;;;;;;44.97;23.40;;;9.40;99.90;;;;;;4914487;28;20060;-64
2023/04/23 04:53:41;;;;;;;45.40;22.38;;;9.50;99.90;;;;;;4926354;28;20464;-64
2023/04/23 04:56:07;;;;;;;39.83;21.48;;;9.60;99.90;;;;;;4925120;28;20559;-64
2023/04/23 04:58:33;;;;;;;34.72;19.95;;;9.60;99.90;;;;;;4914681;28;20094;-65
2023/04/23 05:01:00;;;;;;;39.20;20.45;;;9.70;99.90;;;;;;4925105;28;20409;-65
2023/04/23 05:03:26;;;;;;;35.65;19.58;;;9.70;99.90;;;;;;4935082;28;20035;-66
2023/04/23 05:05:55;;;;;;;38.50;20.60;;;9.80;99.90;;;;;;4934955;28;20028;-65
2023/04/23 05:08:21;;;;;;;33.10;18.40;;;9.90;99.90;;;;;;4923498;28;20032;-66
2023/04/23 05:10:46;;;;;;;33.78;17.63;;;10.00;99.90;;;;;;4929414;28;20036;-64
2023/04/23 05:13:12;;;;;;;28.75;16.95;;;10.10;99.90;;;;;;4941577;28;20043;-65
2023/04/23 05:15:37;;;;;;;30.90;16.60;;;10.30;99.90;;;;;;4930122;28;20498;-66
2023/04/23 05:18:05;;;;;;;29.08;16.45;;;10.40;99.90;;;;;;4924724;28;20027;-65
2023/04/23 05:20:31;;;;;;;27.90;16.02;;;10.60;99.90;;;;;;4922797;28;20073;-66
2023/04/23 05:22:58;;;;;;;24.50;14.32;;;10.80;99.90;;;;;;4940031;28;20497;-65
2023/04/23 05:25:24;;;;;;;23.08;14.27;;;11.00;99.90;;;;;;4946169;28;20066;-66
2023/04/23 05:27:50;;;;;;;24.73;14.27;;;11.20;99.90;;;;;;4925834;28;20039;-66
2023/04/23 05:30:15;;;;;;;24.10;14.38;;;11.30;99.90;;;;;;4935624;28;20035;-65
2023/04/23 05:32:41;;;;;;;21.77;13.35;;;11.50;99.90;;;;;;4929966;28;20055;-65
2023/04/23 05:35:07;;;;;;;22.40;13.98;;;11.60;99.90;;;;;;4943262;28;20036;-67
2023/04/23 05:37:33;;;;;;;23.10;13.88;;;11.70;99.90;;;;;;4926253;28;20393;-65
2023/04/23 05:39:59;;;;;;;20.67;12.45;;;11.70;99.90;;;;;;4943612;28;20028;-65
2023/04/23 05:42:24;;;;;;;17.23;11.68;;;11.80;99.90;;;;;;4923950;28;20066;-66
2023/04/23 05:44:50;;;;;;;25.27;13.13;;;11.90;99.90;;;;;;4931322;28;20133;-66
2023/04/23 05:47:16;;;;;;;18.52;11.93;;;12.10;99.90;;;;;;4927415;28;20034;-65
2023/04/23 05:49:41;;;;;;;21.98;11.68;;;12.30;99.90;;;;;;4927275;28;20051;-66
2023/04/23 05:52:07;;;;;;;16.95;11.00;;;12.50;99.90;;;;;;4928924;28;20040;-65
2023/04/23 05:54:33;;;;;;;17.25;10.90;;;12.50;99.90;;;;;;4923391;28;20545;-66
2023/04/23 05:56:59;;;;;;;16.88;11.13;;;12.70;99.90;;;;;;4909533;28;20122;-65
2023/04/23 05:59:25;;;;;;;20.38;10.98;;;12.70;99.90;;;;;;4925094;28;20470;-65
2023/04/23 06:01:51;;;;;;;22.25;10.18;;;12.90;99.90;;;;;;4928731;28;20031;-65
2023/04/23 06:04:16;;;;;;;13.80;10.68;;;13.30;99.90;;;;;;4916659;28;20016;-66
2023/04/23 06:06:42;;;;;;;13.32;9.63;;;13.80;99.90;;;;;;4929850;28;20047;-65
2023/04/23 06:09:08;;;;;;;14.50;9.18;;;14.40;99.90;;;;;;4921561;28;20039;-66
2023/04/23 06:11:35;;;;;;;15.18;9.20;;;14.60;99.90;;;;;;4905176;28;20035;-66
2023/04/23 06:14:01;;;;;;;10.43;7.75;;;15.00;99.90;;;;;;4911991;28;20031;-66
2023/04/23 06:16:27;;;;;;;11.50;8.68;;;15.70;99.90;;;;;;4924671;28;20085;-65
2023/04/23 06:18:55;;;;;;;13.23;6.97;;;16.80;99.90;;;;;;4924002;28;20469;-66
2023/04/23 06:21:21;;;;;;;9.25;7.10;;;17.60;99.90;;;;;;4928099;28;20110;-66
2023/04/23 06:23:46;;;;;;;11.63;6.93;;;17.60;99.90;;;;;;4923231;28;20035;-66
2023/04/23 06:26:12;;;;;;;13.18;6.78;;;17.20;99.90;;;;;;4912614;28;20032;-66
2023/04/23 06:28:38;;;;;;;11.07;7.25;;;16.90;99.90;;;;;;4932714;28;20388;-66
2023/04/23 06:31:04;;;;;;;9.75;6.60;;;17.00;99.90;;;;;;4933017;28;20381;-66
2023/04/23 06:33:30;;;;;;;10.10;6.68;;;17.10;99.90;;;;;;4912211;28;20024;-66
2023/04/23 06:35:55;;;;;;;9.25;6.25;;;16.60;99.90;;;;;;4923557;28;20087;-65
2023/04/23 06:38:21;;;;;;;9.85;6.53;;;16.30;99.90;;;;;;4924643;28;20015;-65
2023/04/23 06:40:47;;;;;;;11.63;7.15;;;16.30;99.90;;;;;;4925960;28;20047;-65
2023/04/23 06:43:13;;;;;;;9.23;6.75;;;15.80;99.90;;;;;;4928754;28;20043;-65
2023/04/23 06:45:39;;;;;;;10.40;7.32;;;15.40;99.90;;;;;;4927641;28;20051;-65
2023/04/23 06:48:05;;;;;;;9.40;7.15;;;14.90;99.90;;;;;;4929448;28;20043;-65
2023/04/23 06:50:31;;;;;;;10.73;7.32;;;14.70;99.90;;;;;;4927886;28;20050;-66
2023/04/23 06:52:56;;;;;;;10.85;7.20;;;14.60;99.90;;;;;;4927186;28;20523;-66
2023/04/23 06:55:25;;;;;;;12.45;7.25;;;14.50;99.90;;;;;;4936089;28;20035;-66
2023/04/23 06:57:51;;;;;;;12.80;7.13;;;14.40;99.90;;;;;;4911741;28;20050;-66
2023/04/23 07:00:18;;;;;;;9.15;6.97;;;14.40;99.90;;;;;;4955732;23;20416;-67
2023/04/23 07:02:45;;;;;;;11.15;7.85;;;14.30;99.90;;;;;;4947867;28;20062;-67
2023/04/23 07:05:10;;;;;;;16.92;7.75;;;14.20;99.90;;;;;;4944059;28;20493;-66
2023/04/23 07:07:37;;;;;;;10.98;8.18;;;14.20;99.90;;;;;;4939901;28;20063;-65
2023/04/23 07:10:03;;;;;;;9.13;6.15;;;14.10;99.90;;;;;;4943960;28;20393;-68
2023/04/23 07:12:29;;;;;;;8.95;6.78;;;14.00;99.90;;;;;;4937858;28;20114;-68
2023/04/23 07:14:55;;;;;;;10.27;6.00;;;14.00;99.90;;;;;;4944906;28;20130;-66
2023/04/23 07:17:21;;;;;;;8.80;6.32;;;14.00;99.90;;;;;;4947113;28;20040;-68
2023/04/23 07:19:46;;;;;;;10.77;6.10;;;14.00;99.90;;;;;;4948897;28;20525;-68
2023/04/23 07:22:12;;;;;;;7.75;5.43;;;14.10;99.90;;;;;;4949380;29;20493;-67
2023/04/23 07:24:38;;;;;;;9.40;6.20;;;14.30;99.90;;;;;;4949829;28;20477;-67
2023/04/23 07:27:05;;;;;;;7.80;4.80;;;14.20;99.90;;;;;;4941566;28;20111;-68
2023/04/23 07:29:30;;;;;;;6.93;4.35;;;14.40;99.90;;;;;;4949766;28;20457;-68
2023/04/23 07:31:56;;;;;;;7.82;4.90;;;14.50;99.90;;;;;;4946819;28;20055;-66
2023/04/23 07:34:22;;;;;;;7.68;5.82;;;14.50;99.90;;;;;;4948106;28;20031;-68
2023/04/23 07:36:47;;;;;;;6.90;5.63;;;14.70;99.90;;;;;;4945810;28;20043;-66
2023/04/23 07:39:13;;;;;;;7.13;5.35;;;15.10;99.90;;;;;;4949396;28;20031;-68
2023/04/23 07:41:39;;;;;;;5.50;3.88;;;15.60;99.90;;;;;;4948982;28;20061;-68
2023/04/23 07:44:05;;;;;;;7.97;4.20;;;16.10;99.90;;;;;;4949328;28;20139;-68
2023/04/23 07:46:30;;;;;;;6.72;3.75;;;16.40;99.90;;;;;;4949433;28;20400;-68
2023/04/23 07:48:56;;;;;;;6.75;3.67;;;16.60;99.90;;;;;;4949977;28;20024;-66
2023/04/23 07:51:25;;;;;;;5.38;2.97;;;16.90;99.90;;;;;;4951003;28;20042;-66
2023/04/23 07:53:55;;;;;;;4.70;2.88;;;17.80;99.90;;;;;;4942950;28;20487;-68
2023/04/23 07:56:21;;;;;;;5.68;3.05;;;19.30;99.90;;;;;;4943914;28;20090;-66
2023/04/23 07:58:47;;;;;;;4.22;2.55;;;20.30;99.90;;;;;;4937204;28;20050;-67
2023/04/23 08:01:12;;;;;;;3.20;2.17;;;21.80;99.90;;;;;;4946938;28;20035;-68
2023/04/23 08:03:38;;;;;;;4.15;2.13;;;22.30;97.50;;;;;;4941829;28;20110;-67
2023/04/23 08:06:04;;;;;;;3.53;1.98;;;22.60;98.40;;;;;;4943510;28;20035;-66
2023/04/23 08:08:29;;;;;;;2.95;2.13;;;22.30;97.30;;;;;;4945885;28;20124;-70
2023/04/23 08:10:55;;;;;;;3.20;1.90;;;22.60;96.80;;;;;;4953315;28;20036;-67
2023/04/23 08:13:21;;;;;;;2.75;1.60;;;22.50;98.30;;;;;;4944385;28;20031;-68
2023/04/23 08:15:47;;;;;;;3.78;2.17;;;22.50;97.90;;;;;;4942683;28;20051;-67
2023/04/23 08:18:14;;;;;;;2.92;1.90;;;21.80;95.70;;;;;;4943225;28;20066;-66
2023/04/23 08:20:39;;;;;;;2.63;1.58;;;21.10;98.30;;;;;;4945299;28;20051;-67
2023/04/23 08:23:05;;;;;;;4.22;1.83;;;20.70;98.50;;;;;;4939957;28;20452;-67
2023/04/23 08:25:31;;;;;;;9.10;2.17;;;19.80;97.80;;;;;;4952038;28;20028;-67
2023/04/23 08:27:57;;;;;;;2.70;1.70;;;19.30;98.70;;;;;;4948231;28;20123;-66
2023/04/23 08:30:23;;;;;;;2.85;1.73;;;18.70;99.90;;;;;;4932383;29;20031;-67
2023/04/23 08:32:52;;;;;;;4.40;1.70;;;18.70;99.90;;;;;;4947474;28;20023;-67
2023/04/23 08:35:18;;;;;;;3.50;2.10;;;18.50;99.90;;;;;;4930924;28;20082;-68
2023/04/23 08:37:44;;;;;;;4.82;2.63;;;18.40;99.90;;;;;;4947246;28;20433;-66
2023/04/23 08:40:10;;;;;;;5.38;2.67;;;18.20;99.90;;;;;;4941583;28;20027;-68
2023/04/23 08:42:40;;;;;;;4.10;2.10;;;18.50;99.90;;;;;;4945637;28;20031;-68
2023/04/23 08:45:06;;;;;;;4.13;2.00;;;19.00;99.90;;;;;;4947262;28;20023;-68
2023/04/23 08:47:32;;;;;;;10.10;2.00;;;19.30;99.90;;;;;;4943794;28;20035;-67
2023/04/23 08:49:58;;;;;;;2.00;1.73;;;19.30;99.90;;;;;;4942366;28;20027;-67
2023/04/23 08:52:26;;;;;;;3.00;1.80;;;18.70;99.90;;;;;;4944590;28;20032;-68
2023/04/23 08:54:53;;;;;;;6.10;2.65;;;18.70;99.90;;;;;;4946204;28;20540;-67
2023/04/23 08:57:20;;;;;;;6.85;2.15;;;18.40;99.90;;;;;;4942862;28;20039;-68
2023/04/23 08:59:46;;;;;;;2.72;1.80;;;18.70;99.90;;;;;;4930855;28;20649;-69
2023/04/23 09:02:14;;;;;;;4.70;1.60;;;19.20;99.90;;;;;;4940028;28;20649;-68
2023/04/23 09:04:40;;;;;;;2.22;1.42;;;19.30;99.90;;;;;;4942005;28;20138;-68
2023/04/23 09:07:10;;;;;;;2.00;1.67;;;19.00;99.90;;;;;;4943809;28;20046;-68
2023/04/23 09:09:40;;;;;;;5.38;1.35;;;18.70;99.90;;;;;;4937203;28;20035;-67
2023/04/23 09:12:07;;;;;;;2.10;1.50;;;18.70;99.90;;;;;;4950794;28;20035;-68
2023/04/23 09:14:34;;;;;;;5.38;2.17;;;18.70;99.90;;;;;;4950732;29;20084;-68
2023/04/23 09:17:00;;;;;;;2.10;1.48;;;19.00;99.90;;;;;;4948104;29;20028;-69
2023/04/23 09:19:26;;;;;;;5.25;1.88;;;20.20;99.90;;;;;;4948469;28;20023;-67
2023/04/23 09:21:52;;;;;;;3.08;1.52;;;21.30;98.00;;;;;;4950249;28;20031;-68
2023/04/23 09:24:21;;;;;;;2.72;1.40;;;22.50;98.30;;;;;;4948115;28;20031;-68
2023/04/23 09:26:49;;;;;;;1.92;1.45;;;24.20;94.00;;;;;;4946951;28;20038;-67
2023/04/23 09:29:22;;;;;;;2.95;1.60;;;25.20;94.00;;;;;;4950031;28;20263;-69
2023/04/23 09:31:50;;;;;;;2.63;1.50;;;24.40;91.50;;;;;;4947871;29;20035;-66
2023/04/23 09:34:20;;;;;;;4.25;1.35;;;23.50;91.30;;;;;;4952882;28;20039;-67
2023/04/23 09:36:49;;;;;;;2.80;1.45;;;22.80;93.10;;;;;;4950816;28;20038;-67
2023/04/23 09:39:17;;;;;;;3.42;1.20;;;21.80;93.10;;;;;;4941470;28;20444;-67
2023/04/23 09:41:45;;;;;;;3.95;1.50;;;22.10;94.10;;;;;;4927182;28;20027;-67
2023/04/23 09:44:12;;;;;;;2.90;1.40;;;22.10;93.50;;;;;;4947761;28;20575;-68
2023/04/23 09:46:42;;;;;;;2.70;1.20;;;22.20;93.10;;;;;;4917295;28;20443;-67
2023/04/23 09:49:10;;;;;;;2.97;1.10;;;21.90;93.20;;;;;;4928019;28;20099;-67
2023/04/23 09:51:48;;;;;;;1.17;0.90;;;21.90;93.40;;;;;;4942408;28;20396;-67
2023/04/23 09:54:21;;;;;;;1.23;0.80;;;22.00;91.10;;;;;;4939469;28;20028;-67
2023/04/23 09:56:52;;;;;;;6.05;1.52;;;22.20;92.50;;;;;;4942639;28;20023;-67
2023/04/23 09:59:23;;;;;;;2.03;1.00;;;22.60;90.40;;;;;;4928791;28;20081;-67
2023/04/23 10:01:49;;;;;;;1.38;0.82;;;22.80;90.60;;;;;;4948866;28;20027;-67
2023/04/23 10:04:22;;;;;;;1.35;0.90;;;22.90;88.50;;;;;;4966743;28;20027;-67
2023/04/23 10:07:02;;;;;;;3.55;1.00;;;22.30;89.90;;;;;;4940532;28;20028;-66
2023/04/23 10:09:28;;;;;;;3.88;1.40;;;22.00;88.80;;;;;;4945345;28;20126;-66
2023/04/23 10:11:55;;;;;;;1.70;0.98;;;21.40;90.20;;;;;;4945584;28;20034;-66
2023/04/23 10:14:21;;;;;;;2.97;0.80;;;20.70;91.00;;;;;;4964301;28;20047;-66
2023/04/23 10:16:50;;;;;;;3.42;1.20;;;20.50;92.40;;;;;;4970872;28;20473;-66
2023/04/23 10:19:23;;;;;;;1.90;0.90;;;20.70;92.20;;;;;;4937223;28;20046;-67
2023/04/23 10:22:03;;;;;;;2.67;1.30;;;21.10;90.50;;;;;;4934002;28;20039;-66
2023/04/23 10:24:32;;;;;;;3.38;1.13;;;21.00;92.00;;;;;;4943499;28;20032;-67
2023/04/23 10:27:03;;;;;;;2.28;1.10;;;21.00;91.40;;;;;;4943654;28;20047;-67
2023/04/23 10:29:31;;;;;;;5.75;1.35;;;21.00;91.20;;;;;;4941927;28;20062;-67
2023/04/23 10:32:02;;;;;;;5.93;1.10;;;21.20;91.30;;;;;;4948985;28;20439;-67
2023/04/23 10:34:30;;;;;;;5.45;1.05;;;21.40;90.80;;;;;;4936982;28;20028;-66
2023/04/23 10:36:59;;;;;;;2.20;0.98;;;21.40;91.30;;;;;;4930171;28;20035;-67
2023/04/23 10:39:31;;;;;;;2.67;0.98;;;21.50;90.90;;;;;;4922276;28;20028;-67
2023/04/23 10:41:58;;;;;;;2.00;0.90;;;21.40;91.10;;;;;;4941697;28;20048;-67
2023/04/23 10:44:31;;;;;;;4.80;1.80;;;21.20;90.70;;;;;;4945630;28;20118;-66
2023/04/23 10:46:59;;;;;;;3.65;0.95;;;20.80;90.70;;;;;;4943569;28;20062;-67
2023/04/23 10:49:28;;;;;;;5.28;1.65;;;20.90;91.10;;;;;;4941145;28;20429;-67
2023/04/23 10:52:02;;;;;;;3.95;0.93;;;20.60;90.90;;;;;;4936982;28;20027;-67
2023/04/23 10:54:32;;;;;;;2.92;0.80;;;20.80;90.60;;;;;;4940650;28;20093;-67
2023/04/23 10:57:00;;;;;;;3.72;0.95;;;20.60;90.50;;;;;;4941572;28;20572;-66
2023/04/23 10:59:28;;;;;;;6.40;1.20;;;20.20;91.70;;;;;;4919070;28;20062;-66
2023/04/23 11:01:57;;;;;;;2.75;1.10;;;20.00;92.10;;;;;;4922784;28;20559;-67
2023/04/23 11:04:25;;;;;;;2.80;1.20;;;19.90;91.60;;;;;;4944747;28;20050;-65
2023/04/23 11:06:54;;;;;;;1.88;0.73;;;19.60;92.20;;;;;;4940814;28;20024;-65
2023/04/23 11:09:39;;;;;;;4.65;1.33;;;19.40;91.80;;;;;;4942310;28;20036;-66
2023/04/23 11:12:07;;;;;;;3.65;1.10;;;19.10;93.70;;;;;;4941238;28;20389;-66
2023/04/23 11:14:54;;;;;;;2.72;0.98;;;18.80;93.20;;;;;;4940019;28;20024;-66
2023/04/23 11:17:42;;;;;;;4.47;1.08;;;18.60;93.70;;;;;;4941822;28;20102;-67
2023/04/23 11:20:15;;;;;;;7.80;1.42;;;18.50;94.60;;;;;;4951463;28;20381;-66
2023/04/23 11:22:50;;;;;;;4.63;0.90;;;18.70;95.00;;;;;;4948580;28;20372;-66
2023/04/23 11:25:19;;;;;;;2.75;0.93;;;18.90;93.80;;;;;;4942660;28;20046;-65
2023/04/23 11:27:46;;;;;;;5.90;2.05;;;19.10;92.00;;;;;;4942992;28;20032;-66
2023/04/23 11:30:14;;;;;;;8.27;3.05;;;19.10;91.00;;;;;;4937024;28;20024;-67
2023/04/23 11:32:41;;;;;;;7.53;3.72;;;19.30;91.20;;;;;;4962769;28;20500;-66
2023/04/23 11:35:08;;;;;;;1.27;0.80;;;19.60;91.30;;;;;;4934865;28;20062;-65
2023/04/23 11:37:41;;;;;;;1.95;0.93;;;20.00;90.00;;;;;;4952482;28;20079;-66
2023/04/23 11:40:09;;;;;;;7.25;0.90;;;19.80;90.00;;;;;;4965016;28;20025;-66
2023/04/23 11:42:42;;;;;;;3.90;1.00;;;20.10;90.50;;;;;;4925757;28;20024;-66
2023/04/23 11:45:14;;;;;;;;;;;20.50;90.90;;;;;;4943481;29;20020;-66
2023/04/23 11:47:40;;;;;;;2.88;0.90;;;20.90;88.90;;;;;;4939833;29;19910;-65
2023/04/23 11:50:06;;;;;;;1.38;0.80;;;20.80;89.10;;;;;;4927613;28;20042;-66
2023/04/23 11:52:32;;;;;;;1.75;0.68;;;20.80;90.20;;;;;;4939157;28;20539;-67
2023/04/23 11:55:02;;;;;;;3.30;0.93;;;20.60;90.00;;;;;;4939167;28;20039;-65
2023/04/23 11:57:29;;;;;;;1.23;0.65;;;20.60;86.60;;;;;;4939801;28;20886;-65
2023/04/23 11:59:54;;;;;;;3.08;1.02;;;20.50;89.00;;;;;;4931263;28;20047;-66
2023/04/23 12:02:23;;;;;;;1.52;0.90;;;20.10;87.80;;;;;;4946315;28;20035;-66
2023/04/23 12:04:48;;;;;;;3.17;1.35;;;20.00;87.60;;;;;;4941103;28;20759;-65
2023/04/23 12:07:14;;;;;;;2.08;0.82;;;19.80;89.10;;;;;;4948158;28;20039;-64
2023/04/23 12:09:39;;;;;;;3.20;0.75;;;20.10;89.40;;;;;;4935910;28;20069;-66
2023/04/23 12:12:05;;;;;;;1.02;0.63;;;20.50;88.40;;;;;;4933799;28;20024;-66
2023/04/23 12:14:32;;;;;;;0.90;0.60;;;20.70;89.60;;;;;;4941492;29;20525;-65
2023/04/23 12:17:08;;;;;;;1.42;0.80;;;20.40;86.20;;;;;;4946122;28;20035;-66
2023/04/23 12:19:34;;;;;;;3.38;0.90;;;20.20;86.40;;;;;;4941120;28;20089;-66
2023/04/23 12:22:02;;;;;;;2.67;1.20;;;20.20;86.80;;;;;;4934622;28;20035;-65
2023/04/23 12:24:30;;;;;;;2.22;1.00;;;20.20;88.00;;;;;;4942375;28;20053;-65
2023/04/23 12:26:59;;;;;;;6.43;1.30;;;19.90;86.70;;;;;;4939994;28;20043;-66
2023/04/23 12:29:25;;;;;;;2.30;0.80;;;19.60;86.70;;;;;;4931695;28;20032;-66
2023/04/23 12:31:52;;;;;;;2.65;1.38;;;19.60;88.40;;;;;;4935772;28;20040;-66
2023/04/23 12:34:19;;;;;;;3.45;2.10;;;19.60;87.90;;;;;;4938767;28;20111;-66
2023/04/23 12:36:50;;;;;;;3.85;1.30;;;19.80;87.60;;;;;;4919948;28;20374;-66